createdAt,value
2023-12-15T00:01:19.497Z,99934.84
2023-12-15T00:07:21.937Z,99911.41
2023-12-15T00:13:24.438Z,99910.22
2023-12-15T00:19:26.981Z,99925.50
2023-12-15T00:25:30.384Z,99898.56
2023-12-15T00:31:32.815Z,99965.31
2023-12-15T00:37:36.789Z,99860.59
2023-12-15T00:43:39.804Z,100011.19
2023-12-15T00:49:43.217Z,100007.06
2023-12-15T00:55:45.717Z,100013.34
2023-12-15T01:01:47.759Z,100005.09
2023-12-15T01:07:51.671Z,100037.16
2023-12-15T01:13:54.100Z,99845.38
2023-12-15T01:19:56.574Z,99778.66
2023-12-15T01:25:59.020Z,100041.03
2023-12-15T01:32:01.506Z,99857.75
2023-12-15T01:38:05.046Z,99997.72
2023-12-15T01:44:07.467Z,100039.59
2023-12-15T01:50:10.943Z,99965.00
2023-12-15T01:56:13.770Z,100050.50
2023-12-15T02:02:16.205Z,99872.75
2023-12-15T02:08:18.379Z,99994.38
2023-12-15T02:14:20.835Z,100049.16
2023-12-15T02:20:23.327Z,100105.41
2023-12-15T02:26:25.794Z,100109.88
2023-12-15T02:32:28.320Z,99751.16
2023-12-15T02:38:31.682Z,100148.84
2023-12-15T02:44:35.120Z,100158.59
2023-12-15T02:50:37.642Z,100167.69
2023-12-15T02:56:40.060Z,100055.06
2023-12-15T03:02:43.516Z,100144.94
2023-12-15T03:08:45.973Z,99947.53
2023-12-15T03:14:52.516Z,100202.03
2023-12-15T03:20:54.962Z,99997.53
2023-12-15T03:26:57.464Z,100228.75
2023-12-15T03:32:59.973Z,100195.91
2023-12-15T03:39:05.355Z,100099.81
2023-12-15T03:45:08.865Z,100249.91
2023-12-15T03:51:14.289Z,100254.28
2023-12-15T03:57:16.811Z,100078.19
2023-12-15T04:03:19.245Z,100266.44
2023-12-15T04:09:21.730Z,100234.28
2023-12-15T04:15:24.234Z,100266.78
2023-12-15T04:21:26.709Z,100270.28
2023-12-15T04:27:34.001Z,100171.50
2023-12-15T04:33:36.814Z,100298.25
2023-12-15T04:39:39.091Z,100221.06
2023-12-15T04:45:41.539Z,100251.72
2023-12-15T04:51:44.029Z,100304.78
2023-12-15T04:57:48.994Z,100289.19
2023-12-15T05:03:52.022Z,100265.66
2023-12-15T05:09:54.043Z,100288.88
2023-12-15T05:15:56.946Z,100338.69
2023-12-15T05:22:00.413Z,100351.28
2023-12-15T05:28:02.879Z,100359.44
2023-12-15T05:34:05.437Z,100211.53
2023-12-15T05:40:11.812Z,100147.44
2023-12-15T05:46:16.249Z,100373.78
2023-12-15T05:52:18.753Z,100417.66
2023-12-15T05:58:21.249Z,100292.78
2023-12-15T06:04:26.719Z,100405.63
2023-12-15T06:10:30.214Z,100450.03
2023-12-15T06:16:32.692Z,100422.22
2023-12-15T06:22:35.138Z,100476.31
2023-12-15T06:28:37.611Z,100421.16
2023-12-15T06:34:44.093Z,100493.38
2023-12-15T06:40:46.589Z,100443.25
2023-12-15T06:46:49.040Z,100470.38
2023-12-15T06:52:56.522Z,100093.88
2023-12-15T06:58:59.025Z,100460.13
2023-12-15T07:05:01.796Z,100141.59
2023-12-15T07:11:04.108Z,100509.00
2023-12-15T07:17:06.553Z,100533.09
2023-12-15T07:23:11.440Z,100497.25
2023-12-15T07:29:13.411Z,100539.50
2023-12-15T07:35:21.079Z,100541.63
2023-12-15T07:41:31.411Z,100530.34
2023-12-15T07:47:33.979Z,100435.34
2023-12-15T07:53:41.519Z,100584.38
2023-12-15T07:59:43.820Z,100598.78
2023-12-15T08:05:46.275Z,100604.97
2023-12-15T08:11:48.796Z,100614.88
2023-12-15T08:17:52.321Z,100623.25
2023-12-15T08:23:54.567Z,100594.72
2023-12-15T08:29:59.071Z,100653.94
2023-12-15T08:36:01.489Z,100653.91
2023-12-15T08:42:03.979Z,100669.41
2023-12-15T08:48:06.641Z,100636.28
2023-12-15T08:54:09.897Z,100505.38
2023-12-15T09:00:13.372Z,100667.28
2023-12-15T09:06:26.032Z,100694.63
2023-12-15T09:12:31.387Z,100611.63
2023-12-15T09:18:33.947Z,100694.06
2023-12-15T09:24:37.298Z,100696.97
2023-12-15T09:30:39.807Z,100702.50
2023-12-15T09:36:42.220Z,100717.44
2023-12-15T09:42:44.740Z,100716.56
2023-12-15T09:48:48.237Z,100722.03
2023-12-15T09:54:51.624Z,100655.03
2023-12-15T10:00:54.103Z,100733.88
2023-12-15T10:06:56.546Z,100550.78
2023-12-15T10:12:59.012Z,100702.56
2023-12-15T10:19:04.609Z,100744.84
2023-12-15T10:25:27.036Z,100759.97
2023-12-15T10:31:29.516Z,100693.19
2023-12-15T10:37:34.991Z,100778.72
2023-12-15T10:43:40.421Z,100744.81
2023-12-15T10:49:50.193Z,100719.22
2023-12-15T10:55:56.877Z,100710.78
2023-12-15T11:02:02.234Z,100796.94
2023-12-15T11:08:05.474Z,100720.53
2023-12-15T11:14:13.840Z,100796.94
2023-12-15T11:20:22.512Z,100814.72
2023-12-15T11:26:33.958Z,100754.56
2023-12-15T11:32:36.684Z,100746.88
2023-12-15T11:38:40.852Z,100804.47
2023-12-15T11:44:49.279Z,100768.69
2023-12-15T11:50:51.720Z,100539.16
2023-12-15T11:56:57.228Z,100618.19
2023-12-15T12:03:02.693Z,100708.00
2023-12-15T12:09:11.162Z,100792.38
2023-12-15T12:15:13.631Z,100660.13
2023-12-15T12:21:17.116Z,100804.78
2023-12-15T12:27:19.552Z,100846.28
2023-12-15T12:33:26.279Z,100786.50
2023-12-15T12:39:29.506Z,100861.50
2023-12-15T12:45:41.994Z,100694.03
2023-12-15T12:51:44.485Z,100715.63
2023-12-15T12:57:48.922Z,100887.69
2023-12-15T13:03:51.523Z,100475.94
2023-12-15T13:09:56.972Z,100902.00
2023-12-15T13:16:05.303Z,100895.50
2023-12-15T13:22:10.812Z,100695.00
2023-12-15T13:28:14.539Z,100783.56
2023-12-15T13:34:20.801Z,100792.41
2023-12-15T13:40:24.239Z,100767.00
2023-12-15T13:46:26.690Z,100968.88
2023-12-15T13:52:29.162Z,100754.88
2023-12-15T13:58:31.622Z,100895.44
2023-12-15T14:04:34.104Z,100937.75
2023-12-15T14:10:36.597Z,100963.56
2023-12-15T14:16:44.381Z,101015.44
2023-12-15T14:22:49.551Z,101039.19
2023-12-15T14:28:52.001Z,100871.84
2023-12-15T14:34:56.999Z,101012.75
2023-12-15T14:41:04.291Z,101060.44
2023-12-15T14:47:08.554Z,101041.63
2023-12-15T14:53:11.962Z,101080.75
2023-12-15T14:59:14.443Z,101095.66
2023-12-15T15:05:17.919Z,101101.84
2023-12-15T15:11:20.364Z,100815.25
2023-12-15T15:17:27.208Z,100914.44
2023-12-15T15:23:32.345Z,101100.22
2023-12-15T15:29:34.826Z,101053.00
2023-12-15T15:35:37.290Z,101188.09
2023-12-15T15:41:39.734Z,101189.78
2023-12-15T15:47:42.483Z,101194.00
2023-12-15T15:53:45.620Z,101193.81
2023-12-15T15:59:48.126Z,101205.38
2023-12-15T16:05:50.683Z,101187.41
2023-12-15T16:11:54.033Z,100940.59
2023-12-15T16:18:02.150Z,100985.53
2023-12-15T16:24:06.281Z,101250.00
2023-12-15T16:30:09.584Z,101250.56
2023-12-15T16:36:24.987Z,101251.22
2023-12-15T16:42:27.432Z,101202.94
2023-12-15T16:48:29.900Z,101211.16
2023-12-15T16:54:39.918Z,101276.13
2023-12-15T17:00:42.927Z,101251.09
2023-12-15T17:06:48.326Z,101228.34
2023-12-15T17:12:50.804Z,101239.19
2023-12-15T17:18:53.363Z,101322.28
2023-12-15T17:24:55.727Z,101326.75
2023-12-15T17:30:58.211Z,101340.31
2023-12-15T17:37:00.664Z,101331.97
2023-12-15T17:43:03.120Z,101333.69
2023-12-15T17:49:07.059Z,101316.72
2023-12-15T17:55:14.133Z,101367.13
2023-12-15T18:01:18.859Z,101364.91
2023-12-15T18:07:23.044Z,101071.19
2023-12-15T18:13:28.485Z,101390.84
2023-12-15T18:19:33.989Z,101410.84
2023-12-15T18:25:37.498Z,101402.66
2023-12-15T18:31:42.958Z,101408.16
2023-12-15T18:37:45.389Z,101329.53
2023-12-15T18:43:47.846Z,101172.09
2023-12-15T18:49:50.365Z,101453.94
2023-12-15T18:55:52.796Z,101459.97
2023-12-15T19:01:55.323Z,101362.47
2023-12-15T19:07:57.727Z,101494.22
2023-12-15T19:14:00.303Z,101439.72
2023-12-15T19:20:02.655Z,101515.34
2023-12-15T19:26:09.170Z,101424.88
2023-12-15T19:32:12.658Z,101513.06
2023-12-15T19:38:16.133Z,101363.56
2023-12-15T19:44:18.583Z,101444.19
2023-12-15T19:50:25.542Z,101527.91
2023-12-15T19:56:30.513Z,101537.56
2023-12-15T20:02:32.982Z,101546.03
2023-12-15T20:08:36.468Z,101540.94
2023-12-15T20:14:38.938Z,101472.19
2023-12-15T20:20:43.653Z,101506.41
2023-12-15T20:26:47.873Z,101403.28
2023-12-15T20:32:50.456Z,101554.25
2023-12-15T20:38:54.762Z,101549.22
2023-12-15T20:44:57.223Z,101249.66
2023-12-15T20:50:59.790Z,101550.16
2023-12-15T20:57:02.132Z,101556.50
2023-12-15T21:03:04.668Z,101534.16
2023-12-15T21:09:08.031Z,101570.88
2023-12-15T21:15:11.518Z,101572.88
2023-12-15T21:21:15.007Z,101507.38
2023-12-15T21:27:17.437Z,101415.22
2023-12-15T21:33:20.070Z,101529.44
2023-12-15T21:39:22.402Z,101523.91
2023-12-15T21:45:27.868Z,101582.78
2023-12-15T21:51:32.317Z,101597.81
2023-12-15T21:57:34.932Z,101602.53
2023-12-15T22:03:41.309Z,101351.50
2023-12-15T22:09:43.728Z,101610.53
2023-12-15T22:15:48.112Z,101549.56
2023-12-15T22:21:52.684Z,101443.78
2023-12-15T22:27:55.191Z,101564.41
2023-12-15T22:33:57.704Z,101569.28
2023-12-15T22:40:04.681Z,101487.56
2023-12-15T22:46:09.605Z,101563.59
2023-12-15T22:52:12.065Z,101517.09
2023-12-15T22:58:14.536Z,101614.59
2023-12-15T23:04:28.130Z,101544.13
2023-12-15T23:10:31.596Z,101629.75
2023-12-15T23:16:35.045Z,101600.44
2023-12-15T23:22:47.547Z,101632.06
2023-12-15T23:28:50.038Z,101400.97
2023-12-15T23:34:52.433Z,101589.63
2023-12-15T23:40:55.361Z,101566.38
2023-12-15T23:47:00.343Z,101498.34
2023-12-15T23:53:02.834Z,101547.03
2023-12-15T23:59:05.269Z,101472.09
